Kiritimati, Kiritimati Cassidy International Airport (PLCH)

NameKiritimati Cassidy International Airport
CityKiritimati
CountryKiribati
ICAOPLCH
IATACXI
Altitude2 m
CoordinatesGoogle Map
Live Air TrafficLiveATC.net
METARPLCH 230700Z 09005KT 9999 FEW020 27/24 Q1009
2019-02-23 07:00:00 Wind: East (90°) 2.57 m/s - Visibility: > 10000 m - Temperature: 27 °C - Dew point: 24 °C - Humidity: 83.7% - Pressure: 1009 hPa
Statistics

The table below shows the detailed information of all flights to/from Kiritimati, Kiritimati Cassidy International Airport (PLCH).